sensor_id;sensor_type;location;lat;lon;timestamp;P1;durP1;ratioP1;P2;durP2;ratioP2
9671;SDS011;4874;43.568;27.824;2022-07-29T00:02:14;5.28;;;3.58;;
9671;SDS011;4874;43.568;27.824;2022-07-29T00:04:41;9.90;;;4.63;;
9671;SDS011;4874;43.568;27.824;2022-07-29T00:07:08;9.70;;;5.32;;
9671;SDS011;4874;43.568;27.824;2022-07-29T00:09:34;14.45;;;6.18;;
9671;SDS011;4874;43.568;27.824;2022-07-29T00:12:07;11.88;;;5.38;;
9671;SDS011;4874;43.568;27.824;2022-07-29T00:14:34;10.20;;;4.57;;
9671;SDS011;4874;43.568;27.824;2022-07-29T00:17:00;8.63;;;4.47;;
9671;SDS011;4874;43.568;27.824;2022-07-29T00:19:27;8.07;;;4.60;;
9671;SDS011;4874;43.568;27.824;2022-07-29T00:21:54;10.95;;;5.13;;
9671;SDS011;4874;43.568;27.824;2022-07-29T00:24:21;10.88;;;5.25;;
9671;SDS011;4874;43.568;27.824;2022-07-29T00:26:47;15.13;;;4.97;;
9671;SDS011;4874;43.568;27.824;2022-07-29T00:29:14;6.45;;;4.13;;
9671;SDS011;4874;43.568;27.824;2022-07-29T00:31:58;8.63;;;4.38;;
9671;SDS011;4874;43.568;27.824;2022-07-29T00:34:25;6.32;;;4.15;;
9671;SDS011;4874;43.568;27.824;2022-07-29T00:37:10;7.03;;;4.32;;
9671;SDS011;4874;43.568;27.824;2022-07-29T00:39:37;8.95;;;4.07;;
9671;SDS011;4874;43.568;27.824;2022-07-29T00:42:04;5.72;;;3.97;;
9671;SDS011;4874;43.568;27.824;2022-07-29T00:44:35;7.35;;;3.97;;
9671;SDS011;4874;43.568;27.824;2022-07-29T00:47:03;4.93;;;3.13;;
9671;SDS011;4874;43.568;27.824;2022-07-29T00:49:30;6.25;;;3.63;;
9671;SDS011;4874;43.568;27.824;2022-07-29T00:51:57;6.18;;;3.83;;
9671;SDS011;4874;43.568;27.824;2022-07-29T00:54:23;4.43;;;3.53;;
9671;SDS011;4874;43.568;27.824;2022-07-29T00:56:50;6.32;;;3.33;;
9671;SDS011;4874;43.568;27.824;2022-07-29T00:59:17;6.63;;;3.55;;
9671;SDS011;4874;43.568;27.824;2022-07-29T01:01:44;6.65;;;3.58;;
9671;SDS011;4874;43.568;27.824;2022-07-29T01:04:10;5.95;;;3.70;;
9671;SDS011;4874;43.568;27.824;2022-07-29T01:06:37;4.72;;;3.38;;
9671;SDS011;4874;43.568;27.824;2022-07-29T01:09:04;6.05;;;3.40;;
9671;SDS011;4874;43.568;27.824;2022-07-29T01:11:31;5.43;;;3.60;;
9671;SDS011;4874;43.568;27.824;2022-07-29T01:14:00;4.55;;;3.45;;
9671;SDS011;4874;43.568;27.824;2022-07-29T01:16:31;4.68;;;3.55;;
9671;SDS011;4874;43.568;27.824;2022-07-29T01:19:33;4.95;;;3.35;;
9671;SDS011;4874;43.568;27.824;2022-07-29T01:22:25;6.25;;;3.67;;
9671;SDS011;4874;43.568;27.824;2022-07-29T01:31:04;4.68;;;3.15;;
9671;SDS011;4874;43.568;27.824;2022-07-29T01:33:34;4.63;;;2.95;;
9671;SDS011;4874;43.568;27.824;2022-07-29T01:36:22;4.32;;;3.25;;
9671;SDS011;4874;43.568;27.824;2022-07-29T01:39:05;6.05;;;3.10;;
9671;SDS011;4874;43.568;27.824;2022-07-29T01:41:37;5.47;;;3.28;;
9671;SDS011;4874;43.568;27.824;2022-07-29T01:44:16;5.38;;;2.97;;
9671;SDS011;4874;43.568;27.824;2022-07-29T01:46:51;4.28;;;3.15;;
9671;SDS011;4874;43.568;27.824;2022-07-29T01:49:22;5.20;;;3.40;;
9671;SDS011;4874;43.568;27.824;2022-07-29T01:51:56;6.20;;;4.18;;
9671;SDS011;4874;43.568;27.824;2022-07-29T01:54:40;4.57;;;3.75;;
9671;SDS011;4874;43.568;27.824;2022-07-29T01:57:13;5.35;;;3.80;;
9671;SDS011;4874;43.568;27.824;2022-07-29T01:59:43;5.43;;;4.20;;
9671;SDS011;4874;43.568;27.824;2022-07-29T02:02:13;6.10;;;4.35;;
9671;SDS011;4874;43.568;27.824;2022-07-29T02:04:43;6.20;;;4.75;;
9671;SDS011;4874;43.568;27.824;2022-07-29T02:07:15;6.53;;;4.57;;
9671;SDS011;4874;43.568;27.824;2022-07-29T02:09:45;5.88;;;4.57;;
9671;SDS011;4874;43.568;27.824;2022-07-29T02:12:14;5.75;;;4.45;;
9671;SDS011;4874;43.568;27.824;2022-07-29T02:14:45;5.82;;;4.70;;
9671;SDS011;4874;43.568;27.824;2022-07-29T02:17:16;9.13;;;5.47;;
9671;SDS011;4874;43.568;27.824;2022-07-29T02:19:53;6.55;;;5.05;;
9671;SDS011;4874;43.568;27.824;2022-07-29T02:22:23;6.28;;;4.88;;
9671;SDS011;4874;43.568;27.824;2022-07-29T02:24:52;6.78;;;4.28;;
9671;SDS011;4874;43.568;27.824;2022-07-29T02:27:20;6.43;;;4.90;;
9671;SDS011;4874;43.568;27.824;2022-07-29T02:29:48;8.70;;;5.32;;
9671;SDS011;4874;43.568;27.824;2022-07-29T02:32:17;6.60;;;4.82;;
9671;SDS011;4874;43.568;27.824;2022-07-29T02:34:47;5.93;;;4.55;;
9671;SDS011;4874;43.568;27.824;2022-07-29T02:37:16;7.43;;;5.25;;
9671;SDS011;4874;43.568;27.824;2022-07-29T02:39:44;6.80;;;5.25;;
9671;SDS011;4874;43.568;27.824;2022-07-29T02:42:15;6.68;;;4.35;;
9671;SDS011;4874;43.568;27.824;2022-07-29T02:44:43;5.68;;;4.25;;
9671;SDS011;4874;43.568;27.824;2022-07-29T02:50:14;8.35;;;4.45;;
9671;SDS011;4874;43.568;27.824;2022-07-29T02:55:32;12.38;;;5.18;;
9671;SDS011;4874;43.568;27.824;2022-07-29T02:58:05;8.52;;;5.20;;
9671;SDS011;4874;43.568;27.824;2022-07-29T03:00:39;10.38;;;5.95;;
9671;SDS011;4874;43.568;27.824;2022-07-29T03:03:08;11.50;;;5.50;;
9671;SDS011;4874;43.568;27.824;2022-07-29T03:05:38;10.65;;;5.22;;
9671;SDS011;4874;43.568;27.824;2022-07-29T03:08:06;13.13;;;5.72;;
9671;SDS011;4874;43.568;27.824;2022-07-29T03:10:40;8.10;;;4.35;;
9671;SDS011;4874;43.568;27.824;2022-07-29T03:13:10;7.40;;;4.43;;
9671;SDS011;4874;43.568;27.824;2022-07-29T03:15:38;11.60;;;4.63;;
9671;SDS011;4874;43.568;27.824;2022-07-29T03:18:05;10.43;;;4.82;;
9671;SDS011;4874;43.568;27.824;2022-07-29T03:20:33;8.90;;;4.60;;
9671;SDS011;4874;43.568;27.824;2022-07-29T03:23:00;9.90;;;5.28;;
9671;SDS011;4874;43.568;27.824;2022-07-29T03:25:26;8.23;;;4.88;;
9671;SDS011;4874;43.568;27.824;2022-07-29T03:27:53;10.68;;;4.57;;
9671;SDS011;4874;43.568;27.824;2022-07-29T03:30:20;8.45;;;4.82;;
9671;SDS011;4874;43.568;27.824;2022-07-29T03:32:48;8.98;;;4.88;;
9671;SDS011;4874;43.568;27.824;2022-07-29T03:35:17;13.07;;;5.53;;
9671;SDS011;4874;43.568;27.824;2022-07-29T03:37:46;13.48;;;5.60;;
9671;SDS011;4874;43.568;27.824;2022-07-29T03:40:23;14.27;;;6.18;;
9671;SDS011;4874;43.568;27.824;2022-07-29T03:43:12;11.02;;;4.50;;
9671;SDS011;4874;43.568;27.824;2022-07-29T03:45:42;14.88;;;5.60;;
9671;SDS011;4874;43.568;27.824;2022-07-29T03:48:11;10.68;;;5.35;;
9671;SDS011;4874;43.568;27.824;2022-07-29T03:50:40;9.68;;;5.03;;
9671;SDS011;4874;43.568;27.824;2022-07-29T03:53:07;9.73;;;5.25;;
9671;SDS011;4874;43.568;27.824;2022-07-29T03:55:43;12.13;;;5.20;;
9671;SDS011;4874;43.568;27.824;2022-07-29T03:58:13;10.63;;;5.07;;
9671;SDS011;4874;43.568;27.824;2022-07-29T04:00:41;8.18;;;4.30;;
9671;SDS011;4874;43.568;27.824;2022-07-29T04:03:10;8.43;;;5.18;;
9671;SDS011;4874;43.568;27.824;2022-07-29T04:05:37;8.57;;;5.05;;
9671;SDS011;4874;43.568;27.824;2022-07-29T04:08:04;8.57;;;5.10;;
9671;SDS011;4874;43.568;27.824;2022-07-29T04:10:31;6.72;;;4.60;;
9671;SDS011;4874;43.568;27.824;2022-07-29T04:12:59;8.48;;;5.03;;
9671;SDS011;4874;43.568;27.824;2022-07-29T04:15:26;7.43;;;4.18;;
9671;SDS011;4874;43.568;27.824;2022-07-29T04:17:56;6.63;;;4.65;;
9671;SDS011;4874;43.568;27.824;2022-07-29T04:20:23;9.13;;;4.75;;
9671;SDS011;4874;43.568;27.824;2022-07-29T04:22:50;8.27;;;4.25;;
9671;SDS011;4874;43.568;27.824;2022-07-29T04:25:17;9.80;;;4.70;;
9671;SDS011;4874;43.568;27.824;2022-07-29T04:27:43;11.75;;;4.72;;
9671;SDS011;4874;43.568;27.824;2022-07-29T04:30:29;8.70;;;4.57;;
9671;SDS011;4874;43.568;27.824;2022-07-29T04:32:57;10.05;;;3.90;;
9671;SDS011;4874;43.568;27.824;2022-07-29T04:35:24;10.98;;;3.65;;
9671;SDS011;4874;43.568;27.824;2022-07-29T04:37:51;6.63;;;4.00;;
9671;SDS011;4874;43.568;27.824;2022-07-29T04:40:19;13.23;;;5.30;;
9671;SDS011;4874;43.568;27.824;2022-07-29T04:42:45;19.13;;;6.18;;
9671;SDS011;4874;43.568;27.824;2022-07-29T04:45:12;15.20;;;4.88;;
9671;SDS011;4874;43.568;27.824;2022-07-29T04:47:40;9.55;;;5.20;;
9671;SDS011;4874;43.568;27.824;2022-07-29T04:50:07;12.88;;;5.32;;
9671;SDS011;4874;43.568;27.824;2022-07-29T04:52:35;12.10;;;7.60;;
9671;SDS011;4874;43.568;27.824;2022-07-29T04:55:05;13.77;;;6.03;;
9671;SDS011;4874;43.568;27.824;2022-07-29T04:57:32;6.05;;;4.03;;
9671;SDS011;4874;43.568;27.824;2022-07-29T04:59:58;10.30;;;5.70;;
9671;SDS011;4874;43.568;27.824;2022-07-29T05:02:25;6.72;;;4.53;;
9671;SDS011;4874;43.568;27.824;2022-07-29T05:04:52;8.73;;;3.97;;
9671;SDS011;4874;43.568;27.824;2022-07-29T05:07:19;6.13;;;4.25;;
9671;SDS011;4874;43.568;27.824;2022-07-29T05:09:45;10.25;;;5.90;;
9671;SDS011;4874;43.568;27.824;2022-07-29T05:12:12;8.75;;;4.07;;
9671;SDS011;4874;43.568;27.824;2022-07-29T05:14:39;6.07;;;3.38;;
9671;SDS011;4874;43.568;27.824;2022-07-29T05:17:06;7.38;;;3.50;;
9671;SDS011;4874;43.568;27.824;2022-07-29T05:19:33;5.65;;;3.45;;
9671;SDS011;4874;43.568;27.824;2022-07-29T05:21:59;8.30;;;3.15;;
9671;SDS011;4874;43.568;27.824;2022-07-29T05:24:26;8.60;;;4.07;;
9671;SDS011;4874;43.568;27.824;2022-07-29T05:26:53;5.20;;;3.30;;
9671;SDS011;4874;43.568;27.824;2022-07-29T05:29:20;6.43;;;3.63;;
9671;SDS011;4874;43.568;27.824;2022-07-29T05:32:07;9.15;;;3.35;;
9671;SDS011;4874;43.568;27.824;2022-07-29T05:34:34;7.72;;;3.05;;
9671;SDS011;4874;43.568;27.824;2022-07-29T05:37:00;6.63;;;3.10;;
9671;SDS011;4874;43.568;27.824;2022-07-29T05:39:27;8.77;;;6.40;;
9671;SDS011;4874;43.568;27.824;2022-07-29T05:42:01;7.20;;;3.35;;
9671;SDS011;4874;43.568;27.824;2022-07-29T05:44:28;5.38;;;3.47;;
9671;SDS011;4874;43.568;27.824;2022-07-29T05:46:55;6.65;;;3.75;;
9671;SDS011;4874;43.568;27.824;2022-07-29T05:49:21;9.20;;;4.82;;
9671;SDS011;4874;43.568;27.824;2022-07-29T05:51:52;6.68;;;3.67;;
9671;SDS011;4874;43.568;27.824;2022-07-29T05:54:19;7.65;;;3.60;;
9671;SDS011;4874;43.568;27.824;2022-07-29T05:56:46;5.80;;;2.90;;
9671;SDS011;4874;43.568;27.824;2022-07-29T05:59:12;7.35;;;2.53;;
9671;SDS011;4874;43.568;27.824;2022-07-29T06:01:40;10.77;;;2.90;;
9671;SDS011;4874;43.568;27.824;2022-07-29T06:04:07;5.55;;;2.45;;
9671;SDS011;4874;43.568;27.824;2022-07-29T06:06:34;5.60;;;2.47;;
9671;SDS011;4874;43.568;27.824;2022-07-29T06:09:02;5.28;;;2.40;;
9671;SDS011;4874;43.568;27.824;2022-07-29T06:11:34;4.07;;;2.60;;
9671;SDS011;4874;43.568;27.824;2022-07-29T06:14:01;3.15;;;2.00;;
9671;SDS011;4874;43.568;27.824;2022-07-29T06:16:29;4.05;;;2.70;;
9671;SDS011;4874;43.568;27.824;2022-07-29T06:18:56;4.85;;;2.65;;
9671;SDS011;4874;43.568;27.824;2022-07-29T06:21:22;6.95;;;2.17;;
9671;SDS011;4874;43.568;27.824;2022-07-29T06:23:49;3.47;;;2.13;;
9671;SDS011;4874;43.568;27.824;2022-07-29T06:26:16;7.28;;;2.38;;
9671;SDS011;4874;43.568;27.824;2022-07-29T06:28:43;3.40;;;2.22;;
9671;SDS011;4874;43.568;27.824;2022-07-29T06:31:09;2.65;;;1.75;;
9671;SDS011;4874;43.568;27.824;2022-07-29T06:33:36;4.45;;;2.17;;
9671;SDS011;4874;43.568;27.824;2022-07-29T06:36:04;3.20;;;1.80;;
9671;SDS011;4874;43.568;27.824;2022-07-29T06:38:32;4.10;;;1.88;;
9671;SDS011;4874;43.568;27.824;2022-07-29T06:41:01;4.05;;;2.00;;
9671;SDS011;4874;43.568;27.824;2022-07-29T06:43:28;4.50;;;1.77;;
9671;SDS011;4874;43.568;27.824;2022-07-29T06:45:58;2.63;;;1.60;;
9671;SDS011;4874;43.568;27.824;2022-07-29T06:48:26;3.92;;;1.95;;
9671;SDS011;4874;43.568;27.824;2022-07-29T06:50:53;3.05;;;1.92;;
9671;SDS011;4874;43.568;27.824;2022-07-29T06:53:20;2.20;;;1.50;;
9671;SDS011;4874;43.568;27.824;2022-07-29T06:55:47;3.17;;;1.80;;
9671;SDS011;4874;43.568;27.824;2022-07-29T06:58:14;2.97;;;1.70;;
9671;SDS011;4874;43.568;27.824;2022-07-29T07:00:44;5.18;;;1.98;;
9671;SDS011;4874;43.568;27.824;2022-07-29T07:03:11;3.80;;;1.92;;
9671;SDS011;4874;43.568;27.824;2022-07-29T07:05:38;3.13;;;2.10;;
9671;SDS011;4874;43.568;27.824;2022-07-29T07:08:05;5.70;;;2.45;;
9671;SDS011;4874;43.568;27.824;2022-07-29T07:10:32;3.30;;;2.13;;
9671;SDS011;4874;43.568;27.824;2022-07-29T07:12:59;7.68;;;5.68;;
9671;SDS011;4874;43.568;27.824;2022-07-29T07:15:27;5.90;;;2.53;;
9671;SDS011;4874;43.568;27.824;2022-07-29T07:18:05;4.50;;;2.17;;
9671;SDS011;4874;43.568;27.824;2022-07-29T07:20:33;4.47;;;2.35;;
9671;SDS011;4874;43.568;27.824;2022-07-29T07:23:00;4.40;;;2.30;;
9671;SDS011;4874;43.568;27.824;2022-07-29T07:25:27;4.35;;;2.10;;
9671;SDS011;4874;43.568;27.824;2022-07-29T07:27:54;3.38;;;2.00;;
9671;SDS011;4874;43.568;27.824;2022-07-29T07:30:21;3.58;;;2.28;;
9671;SDS011;4874;43.568;27.824;2022-07-29T07:32:48;6.15;;;2.08;;
9671;SDS011;4874;43.568;27.824;2022-07-29T07:35:15;5.18;;;2.20;;
9671;SDS011;4874;43.568;27.824;2022-07-29T07:37:42;3.72;;;1.73;;
9671;SDS011;4874;43.568;27.824;2022-07-29T07:40:09;3.55;;;1.80;;
9671;SDS011;4874;43.568;27.824;2022-07-29T07:42:38;4.35;;;1.88;;
9671;SDS011;4874;43.568;27.824;2022-07-29T07:45:06;3.33;;;1.90;;
9671;SDS011;4874;43.568;27.824;2022-07-29T07:47:41;4.22;;;1.92;;
9671;SDS011;4874;43.568;27.824;2022-07-29T07:50:09;4.75;;;2.60;;
9671;SDS011;4874;43.568;27.824;2022-07-29T07:52:47;3.00;;;1.97;;
9671;SDS011;4874;43.568;27.824;2022-07-29T07:55:16;3.80;;;2.08;;
9671;SDS011;4874;43.568;27.824;2022-07-29T07:57:43;4.25;;;2.10;;
9671;SDS011;4874;43.568;27.824;2022-07-29T08:00:12;4.07;;;2.10;;
9671;SDS011;4874;43.568;27.824;2022-07-29T08:02:40;3.10;;;1.90;;
9671;SDS011;4874;43.568;27.824;2022-07-29T08:05:09;4.35;;;2.47;;
9671;SDS011;4874;43.568;27.824;2022-07-29T08:07:37;4.30;;;2.10;;
9671;SDS011;4874;43.568;27.824;2022-07-29T08:10:04;5.45;;;4.10;;
9671;SDS011;4874;43.568;27.824;2022-07-29T08:12:31;2.95;;;2.17;;
9671;SDS011;4874;43.568;27.824;2022-07-29T08:14:58;3.47;;;1.90;;
9671;SDS011;4874;43.568;27.824;2022-07-29T08:17:25;4.18;;;2.20;;
9671;SDS011;4874;43.568;27.824;2022-07-29T08:19:52;3.90;;;2.50;;
9671;SDS011;4874;43.568;27.824;2022-07-29T08:22:19;3.40;;;1.92;;
9671;SDS011;4874;43.568;27.824;2022-07-29T08:24:46;5.22;;;2.05;;
9671;SDS011;4874;43.568;27.824;2022-07-29T08:27:18;3.33;;;2.00;;
9671;SDS011;4874;43.568;27.824;2022-07-29T08:30:06;6.75;;;2.20;;
9671;SDS011;4874;43.568;27.824;2022-07-29T08:32:33;4.15;;;2.30;;
9671;SDS011;4874;43.568;27.824;2022-07-29T08:35:19;3.80;;;2.13;;
9671;SDS011;4874;43.568;27.824;2022-07-29T08:37:46;5.63;;;2.40;;
9671;SDS011;4874;43.568;27.824;2022-07-29T08:40:13;3.22;;;2.38;;
9671;SDS011;4874;43.568;27.824;2022-07-29T08:42:40;4.20;;;2.20;;
9671;SDS011;4874;43.568;27.824;2022-07-29T08:45:08;3.80;;;2.40;;
9671;SDS011;4874;43.568;27.824;2022-07-29T08:47:34;3.70;;;2.78;;
9671;SDS011;4874;43.568;27.824;2022-07-29T08:50:06;4.28;;;2.30;;
9671;SDS011;4874;43.568;27.824;2022-07-29T08:52:35;5.20;;;2.13;;
9671;SDS011;4874;43.568;27.824;2022-07-29T08:55:04;4.57;;;2.67;;
9671;SDS011;4874;43.568;27.824;2022-07-29T08:57:33;4.30;;;2.67;;
9671;SDS011;4874;43.568;27.824;2022-07-29T09:00:03;2.80;;;2.00;;
9671;SDS011;4874;43.568;27.824;2022-07-29T09:02:35;7.03;;;2.30;;
9671;SDS011;4874;43.568;27.824;2022-07-29T09:05:03;4.63;;;2.50;;
9671;SDS011;4874;43.568;27.824;2022-07-29T09:07:31;5.30;;;1.98;;
9671;SDS011;4874;43.568;27.824;2022-07-29T09:10:00;4.43;;;2.67;;
9671;SDS011;4874;43.568;27.824;2022-07-29T09:12:28;8.02;;;2.70;;
9671;SDS011;4874;43.568;27.824;2022-07-29T09:15:01;5.43;;;2.80;;
9671;SDS011;4874;43.568;27.824;2022-07-29T09:17:47;3.38;;;2.28;;
9671;SDS011;4874;43.568;27.824;2022-07-29T09:20:19;4.78;;;2.60;;
9671;SDS011;4874;43.568;27.824;2022-07-29T09:22:48;4.20;;;2.80;;
9671;SDS011;4874;43.568;27.824;2022-07-29T09:25:31;6.03;;;3.30;;
9671;SDS011;4874;43.568;27.824;2022-07-29T09:28:08;4.78;;;2.50;;
9671;SDS011;4874;43.568;27.824;2022-07-29T09:30:49;3.20;;;2.10;;
9671;SDS011;4874;43.568;27.824;2022-07-29T09:33:18;4.18;;;2.55;;
9671;SDS011;4874;43.568;27.824;2022-07-29T09:35:45;6.20;;;2.92;;
9671;SDS011;4874;43.568;27.824;2022-07-29T09:38:21;5.45;;;2.60;;
9671;SDS011;4874;43.568;27.824;2022-07-29T09:40:58;5.15;;;2.45;;
9671;SDS011;4874;43.568;27.824;2022-07-29T09:43:30;4.32;;;2.95;;
9671;SDS011;4874;43.568;27.824;2022-07-29T09:46:09;5.18;;;2.65;;
9671;SDS011;4874;43.568;27.824;2022-07-29T09:48:37;5.30;;;2.78;;
9671;SDS011;4874;43.568;27.824;2022-07-29T09:51:04;4.30;;;2.47;;
9671;SDS011;4874;43.568;27.824;2022-07-29T09:53:35;4.05;;;2.35;;
9671;SDS011;4874;43.568;27.824;2022-07-29T09:56:04;3.05;;;2.60;;
9671;SDS011;4874;43.568;27.824;2022-07-29T09:58:31;5.22;;;2.78;;
9671;SDS011;4874;43.568;27.824;2022-07-29T10:01:00;5.72;;;2.85;;
9671;SDS011;4874;43.568;27.824;2022-07-29T10:03:27;5.65;;;2.50;;
9671;SDS011;4874;43.568;27.824;2022-07-29T10:06:04;5.88;;;2.85;;
9671;SDS011;4874;43.568;27.824;2022-07-29T10:08:33;5.60;;;2.58;;
9671;SDS011;4874;43.568;27.824;2022-07-29T10:11:10;6.03;;;2.72;;
9671;SDS011;4874;43.568;27.824;2022-07-29T10:13:44;3.65;;;2.42;;
9671;SDS011;4874;43.568;27.824;2022-07-29T10:16:13;5.55;;;2.70;;
9671;SDS011;4874;43.568;27.824;2022-07-29T10:18:41;3.35;;;2.15;;
9671;SDS011;4874;43.568;27.824;2022-07-29T10:21:09;4.53;;;2.83;;
9671;SDS011;4874;43.568;27.824;2022-07-29T10:23:47;5.00;;;2.90;;
9671;SDS011;4874;43.568;27.824;2022-07-29T10:26:15;3.60;;;2.70;;
9671;SDS011;4874;43.568;27.824;2022-07-29T10:28:43;7.40;;;2.80;;
9671;SDS011;4874;43.568;27.824;2022-07-29T10:31:12;6.90;;;3.08;;
9671;SDS011;4874;43.568;27.824;2022-07-29T10:33:56;4.28;;;2.88;;
9671;SDS011;4874;43.568;27.824;2022-07-29T10:37:13;5.45;;;3.03;;
9671;SDS011;4874;43.568;27.824;2022-07-29T10:39:36;6.75;;;2.60;;
9671;SDS011;4874;43.568;27.824;2022-07-29T10:44:55;4.55;;;2.90;;
9671;SDS011;4874;43.568;27.824;2022-07-29T10:47:26;3.70;;;2.28;;
9671;SDS011;4874;43.568;27.824;2022-07-29T10:49:59;5.20;;;3.90;;
9671;SDS011;4874;43.568;27.824;2022-07-29T10:58:11;4.22;;;2.40;;
9671;SDS011;4874;43.568;27.824;2022-07-29T11:00:38;4.43;;;2.78;;
9671;SDS011;4874;43.568;27.824;2022-07-29T11:03:05;4.07;;;2.80;;
9671;SDS011;4874;43.568;27.824;2022-07-29T11:05:51;5.93;;;2.67;;
9671;SDS011;4874;43.568;27.824;2022-07-29T11:08:20;5.13;;;3.38;;
9671;SDS011;4874;43.568;27.824;2022-07-29T11:10:51;3.63;;;2.50;;
9671;SDS011;4874;43.568;27.824;2022-07-29T11:16:21;4.68;;;2.70;;
9671;SDS011;4874;43.568;27.824;2022-07-29T11:21:46;4.32;;;3.05;;
9671;SDS011;4874;43.568;27.824;2022-07-29T11:24:22;11.20;;;3.45;;
9671;SDS011;4874;43.568;27.824;2022-07-29T11:27:11;5.25;;;3.10;;
9671;SDS011;4874;43.568;27.824;2022-07-29T11:32:20;4.10;;;3.05;;
9671;SDS011;4874;43.568;27.824;2022-07-29T11:34:49;4.18;;;2.72;;
9671;SDS011;4874;43.568;27.824;2022-07-29T11:37:43;4.13;;;2.97;;
9671;SDS011;4874;43.568;27.824;2022-07-29T11:40:11;5.10;;;2.80;;
9671;SDS011;4874;43.568;27.824;2022-07-29T11:42:40;5.60;;;2.72;;
9671;SDS011;4874;43.568;27.824;2022-07-29T11:45:13;5.32;;;2.92;;
9671;SDS011;4874;43.568;27.824;2022-07-29T11:48:02;4.28;;;2.42;;
9671;SDS011;4874;43.568;27.824;2022-07-29T11:50:50;3.53;;;2.47;;
9671;SDS011;4874;43.568;27.824;2022-07-29T11:53:17;5.10;;;2.65;;
9671;SDS011;4874;43.568;27.824;2022-07-29T11:55:44;3.45;;;2.47;;
9671;SDS011;4874;43.568;27.824;2022-07-29T11:58:16;7.38;;;2.72;;
9671;SDS011;4874;43.568;27.824;2022-07-29T12:00:50;4.82;;;2.90;;
9671;SDS011;4874;43.568;27.824;2022-07-29T12:03:27;4.88;;;3.15;;
9671;SDS011;4874;43.568;27.824;2022-07-29T12:05:58;4.00;;;2.38;;
9671;SDS011;4874;43.568;27.824;2022-07-29T12:08:25;5.10;;;2.75;;
9671;SDS011;4874;43.568;27.824;2022-07-29T12:10:53;6.40;;;3.00;;
9671;SDS011;4874;43.568;27.824;2022-07-29T12:13:20;5.68;;;3.50;;
9671;SDS011;4874;43.568;27.824;2022-07-29T12:15:52;5.20;;;3.05;;
9671;SDS011;4874;43.568;27.824;2022-07-29T12:18:20;4.53;;;2.83;;
9671;SDS011;4874;43.568;27.824;2022-07-29T12:20:49;6.13;;;2.90;;
9671;SDS011;4874;43.568;27.824;2022-07-29T12:23:23;4.28;;;2.80;;
9671;SDS011;4874;43.568;27.824;2022-07-29T12:25:50;6.43;;;2.83;;
9671;SDS011;4874;43.568;27.824;2022-07-29T12:28:17;3.42;;;2.20;;
9671;SDS011;4874;43.568;27.824;2022-07-29T12:30:46;4.75;;;3.08;;
9671;SDS011;4874;43.568;27.824;2022-07-29T12:33:18;4.00;;;2.63;;
9671;SDS011;4874;43.568;27.824;2022-07-29T12:35:46;3.83;;;2.80;;
9671;SDS011;4874;43.568;27.824;2022-07-29T12:38:28;6.45;;;2.63;;
9671;SDS011;4874;43.568;27.824;2022-07-29T12:40:55;3.70;;;2.42;;
9671;SDS011;4874;43.568;27.824;2022-07-29T12:43:23;5.57;;;2.90;;
9671;SDS011;4874;43.568;27.824;2022-07-29T12:45:53;3.53;;;2.35;;
9671;SDS011;4874;43.568;27.824;2022-07-29T12:48:34;5.68;;;2.67;;
9671;SDS011;4874;43.568;27.824;2022-07-29T12:51:06;6.20;;;2.80;;
9671;SDS011;4874;43.568;27.824;2022-07-29T12:53:35;4.38;;;2.60;;
9671;SDS011;4874;43.568;27.824;2022-07-29T12:56:03;3.83;;;2.58;;
9671;SDS011;4874;43.568;27.824;2022-07-29T12:58:46;5.05;;;2.42;;
9671;SDS011;4874;43.568;27.824;2022-07-29T13:01:16;6.00;;;2.60;;
9671;SDS011;4874;43.568;27.824;2022-07-29T13:11:35;5.82;;;3.17;;
9671;SDS011;4874;43.568;27.824;2022-07-29T13:19:44;5.35;;;3.00;;
9671;SDS011;4874;43.568;27.824;2022-07-29T13:22:13;4.53;;;2.38;;
9671;SDS011;4874;43.568;27.824;2022-07-29T13:27:40;5.38;;;2.70;;
9671;SDS011;4874;43.568;27.824;2022-07-29T13:30:07;4.65;;;2.50;;
9671;SDS011;4874;43.568;27.824;2022-07-29T13:32:36;3.97;;;2.70;;
9671;SDS011;4874;43.568;27.824;2022-07-29T13:35:04;4.38;;;2.42;;
9671;SDS011;4874;43.568;27.824;2022-07-29T13:37:33;3.45;;;2.60;;
9671;SDS011;4874;43.568;27.824;2022-07-29T13:40:05;5.47;;;2.78;;
9671;SDS011;4874;43.568;27.824;2022-07-29T13:42:33;4.45;;;2.85;;
9671;SDS011;4874;43.568;27.824;2022-07-29T13:45:00;3.28;;;2.47;;
9671;SDS011;4874;43.568;27.824;2022-07-29T13:47:27;4.05;;;3.10;;
9671;SDS011;4874;43.568;27.824;2022-07-29T13:49:59;5.15;;;2.60;;
9671;SDS011;4874;43.568;27.824;2022-07-29T13:52:30;4.85;;;2.67;;
9671;SDS011;4874;43.568;27.824;2022-07-29T13:54:57;3.35;;;2.45;;
9671;SDS011;4874;43.568;27.824;2022-07-29T13:57:23;4.68;;;2.63;;
9671;SDS011;4874;43.568;27.824;2022-07-29T13:59:50;6.18;;;2.67;;
9671;SDS011;4874;43.568;27.824;2022-07-29T14:02:19;8.70;;;2.90;;
9671;SDS011;4874;43.568;27.824;2022-07-29T14:04:50;6.85;;;2.78;;
9671;SDS011;4874;43.568;27.824;2022-07-29T14:07:17;5.93;;;3.10;;
9671;SDS011;4874;43.568;27.824;2022-07-29T14:09:44;6.03;;;2.63;;
9671;SDS011;4874;43.568;27.824;2022-07-29T14:12:11;5.78;;;3.30;;
9671;SDS011;4874;43.568;27.824;2022-07-29T14:14:38;5.30;;;2.83;;
9671;SDS011;4874;43.568;27.824;2022-07-29T14:17:04;4.88;;;2.80;;
9671;SDS011;4874;43.568;27.824;2022-07-29T14:19:32;4.28;;;2.70;;
9671;SDS011;4874;43.568;27.824;2022-07-29T14:22:02;4.80;;;2.60;;
9671;SDS011;4874;43.568;27.824;2022-07-29T14:24:30;3.95;;;2.70;;
9671;SDS011;4874;43.568;27.824;2022-07-29T14:26:57;3.85;;;2.85;;
9671;SDS011;4874;43.568;27.824;2022-07-29T14:29:24;6.68;;;2.78;;
9671;SDS011;4874;43.568;27.824;2022-07-29T14:32:02;4.10;;;2.63;;
9671;SDS011;4874;43.568;27.824;2022-07-29T14:34:29;4.25;;;2.67;;
9671;SDS011;4874;43.568;27.824;2022-07-29T14:36:55;4.05;;;2.67;;
9671;SDS011;4874;43.568;27.824;2022-07-29T14:39:23;5.05;;;2.25;;
9671;SDS011;4874;43.568;27.824;2022-07-29T14:41:49;6.40;;;2.88;;
9671;SDS011;4874;43.568;27.824;2022-07-29T14:44:17;2.97;;;2.08;;
9671;SDS011;4874;43.568;27.824;2022-07-29T14:46:44;4.88;;;2.88;;
9671;SDS011;4874;43.568;27.824;2022-07-29T14:49:11;4.13;;;2.65;;
9671;SDS011;4874;43.568;27.824;2022-07-29T14:51:38;5.63;;;2.30;;
9671;SDS011;4874;43.568;27.824;2022-07-29T14:54:05;5.82;;;2.70;;
9671;SDS011;4874;43.568;27.824;2022-07-29T14:56:32;4.78;;;2.70;;
9671;SDS011;4874;43.568;27.824;2022-07-29T14:59:02;4.35;;;2.47;;
9671;SDS011;4874;43.568;27.824;2022-07-29T15:01:29;4.82;;;2.47;;
9671;SDS011;4874;43.568;27.824;2022-07-29T15:03:55;5.03;;;2.13;;
9671;SDS011;4874;43.568;27.824;2022-07-29T15:06:25;5.22;;;1.98;;
9671;SDS011;4874;43.568;27.824;2022-07-29T15:08:52;4.00;;;2.30;;
9671;SDS011;4874;43.568;27.824;2022-07-29T15:11:19;4.78;;;2.45;;
9671;SDS011;4874;43.568;27.824;2022-07-29T15:13:46;3.95;;;2.50;;
9671;SDS011;4874;43.568;27.824;2022-07-29T15:16:12;3.65;;;2.30;;
9671;SDS011;4874;43.568;27.824;2022-07-29T15:18:39;4.72;;;2.50;;
9671;SDS011;4874;43.568;27.824;2022-07-29T15:21:06;5.15;;;2.47;;
9671;SDS011;4874;43.568;27.824;2022-07-29T15:23:33;4.38;;;2.40;;
9671;SDS011;4874;43.568;27.824;2022-07-29T15:26:04;5.97;;;2.65;;
9671;SDS011;4874;43.568;27.824;2022-07-29T15:28:31;5.20;;;2.42;;
9671;SDS011;4874;43.568;27.824;2022-07-29T15:30:58;4.93;;;2.50;;
9671;SDS011;4874;43.568;27.824;2022-07-29T15:33:25;4.03;;;2.20;;
9671;SDS011;4874;43.568;27.824;2022-07-29T15:35:51;6.32;;;2.28;;
9671;SDS011;4874;43.568;27.824;2022-07-29T15:38:18;3.53;;;2.13;;
9671;SDS011;4874;43.568;27.824;2022-07-29T15:40:45;8.65;;;2.88;;
9671;SDS011;4874;43.568;27.824;2022-07-29T15:43:12;3.97;;;2.25;;
9671;SDS011;4874;43.568;27.824;2022-07-29T15:45:40;10.05;;;3.05;;
9671;SDS011;4874;43.568;27.824;2022-07-29T15:48:28;7.00;;;2.90;;
9671;SDS011;4874;43.568;27.824;2022-07-29T15:50:54;4.22;;;2.78;;
9671;SDS011;4874;43.568;27.824;2022-07-29T15:53:21;5.20;;;2.72;;
9671;SDS011;4874;43.568;27.824;2022-07-29T15:55:48;5.18;;;2.50;;
9671;SDS011;4874;43.568;27.824;2022-07-29T15:58:15;4.95;;;2.63;;
9671;SDS011;4874;43.568;27.824;2022-07-29T16:00:41;5.13;;;2.67;;
9671;SDS011;4874;43.568;27.824;2022-07-29T16:03:08;7.55;;;3.00;;